createdAt,value
2023-04-05T00:00:32.607Z,0.65
2023-04-05T00:03:03.248Z,0.62
2023-04-05T00:05:34.658Z,0.58
2023-04-05T00:08:02.482Z,0.53
2023-04-05T00:10:31.175Z,0.61
2023-04-05T00:12:58.787Z,0.62
2023-04-05T00:15:29.352Z,0.60
2023-04-05T00:17:58.205Z,0.52
2023-04-05T00:20:25.942Z,0.48
2023-04-05T00:22:52.712Z,0.37
2023-04-05T00:25:19.545Z,0.42
2023-04-05T00:27:46.388Z,0.40
2023-04-05T00:30:13.553Z,0.54
2023-04-05T00:32:40.463Z,0.43
2023-04-05T00:35:07.479Z,0.47
2023-04-05T00:37:34.517Z,0.53
2023-04-05T00:40:01.360Z,0.53
2023-04-05T00:42:30.048Z,0.46
2023-04-05T00:44:56.864Z,0.53
2023-04-05T00:47:23.931Z,0.53
2023-04-05T00:49:51.035Z,0.47
2023-04-05T00:52:19.779Z,0.53
2023-04-05T00:54:46.578Z,0.45
2023-04-05T00:57:13.919Z,0.55
2023-04-05T00:59:41.072Z,0.45
2023-04-05T01:02:34.131Z,0.43
2023-04-05T01:05:12.348Z,0.53
2023-04-05T01:07:43.081Z,0.43
2023-04-05T01:10:13.460Z,0.41
2023-04-05T01:12:40.882Z,0.37
2023-04-05T01:15:08.399Z,0.37
2023-04-05T01:17:39.422Z,0.44
2023-04-05T01:20:11.259Z,0.37
2023-04-05T01:22:38.979Z,0.31
2023-04-05T01:25:42.660Z,0.28
2023-04-05T01:28:41.163Z,0.36
2023-04-05T01:31:29.498Z,0.33
2023-04-05T01:34:12.615Z,0.31
2023-04-05T01:36:56.195Z,0.30
2023-04-05T01:39:24.240Z,0.27
2023-04-05T01:41:51.738Z,0.31
2023-04-05T01:44:18.535Z,0.34
2023-04-05T01:46:45.823Z,0.42
2023-04-05T01:49:13.393Z,0.32
2023-04-05T01:51:42.238Z,0.33
2023-04-05T01:54:09.819Z,0.46
2023-04-05T01:56:36.632Z,0.31
2023-04-05T01:59:03.989Z,0.31
2023-04-05T02:01:32.015Z,0.27
2023-04-05T02:03:58.795Z,0.23
2023-04-05T02:06:26.745Z,0.27
2023-04-05T02:08:53.511Z,0.24
2023-04-05T02:11:21.219Z,0.25
2023-04-05T02:13:48.252Z,0.22
2023-04-05T02:16:15.669Z,0.18
2023-04-05T02:18:43.664Z,0.25
2023-04-05T02:21:17.422Z,0.14
2023-04-05T02:23:44.244Z,0.09
2023-04-05T02:26:11.110Z,0.10
2023-04-05T02:28:37.887Z,0.16
2023-04-05T02:31:12.378Z,0.25
2023-04-05T02:33:47.564Z,0.11
2023-04-05T02:36:18.690Z,0.05
2023-04-05T02:38:45.677Z,0.08
2023-04-05T02:41:12.567Z,0.15
2023-04-05T02:43:41.227Z,0.13
2023-04-05T02:46:08.128Z,0.19
2023-04-05T02:48:39.499Z,0.15
2023-04-05T02:51:07.251Z,0.14
2023-04-05T02:53:34.728Z,0.11
2023-04-05T02:56:06.080Z,0.11
2023-04-05T02:58:36.004Z,0.09
2023-04-05T03:01:07.388Z,0.12
2023-04-05T03:03:37.938Z,0.08
2023-04-05T03:06:13.475Z,0.14
2023-04-05T03:08:49.424Z,0.16
2023-04-05T03:11:23.024Z,0.10
2023-04-05T03:13:54.243Z,0.14
2023-04-05T03:16:32.900Z,0.08
2023-04-05T03:19:06.380Z,0.10
2023-04-05T03:21:36.368Z,0.06
2023-04-05T03:24:10.249Z,0.08
2023-04-05T03:26:40.962Z,0.08
2023-04-05T03:29:08.041Z,0.07
2023-04-05T03:31:37.820Z,0.05
2023-04-05T03:34:08.241Z,0.10
2023-04-05T03:36:46.200Z,0.16
2023-04-05T03:39:24.497Z,-0.05
2023-04-05T03:41:51.342Z,0.04
2023-04-05T03:44:18.834Z,0.10
2023-04-05T03:46:45.851Z,-0.02
2023-04-05T03:49:14.122Z,0.06
2023-04-05T03:51:40.942Z,0.14
2023-04-05T03:54:07.772Z,0.10
2023-04-05T03:56:36.825Z,0.08
2023-04-05T03:59:11.621Z,0.09
2023-04-05T04:01:38.853Z,0.22
2023-04-05T04:04:06.552Z,0.16
2023-04-05T04:06:33.379Z,0.24
2023-04-05T04:09:00.928Z,0.11
2023-04-05T04:11:29.332Z,0.13
2023-04-05T04:13:56.511Z,0.14
2023-04-05T04:16:36.500Z,0.17
2023-04-05T04:19:24.375Z,0.08
2023-04-05T04:22:20.808Z,0.18
2023-04-05T04:25:16.861Z,0.10
2023-04-05T04:28:08.094Z,0.17
2023-04-05T04:30:48.251Z,0.24
2023-04-05T04:33:34.765Z,0.21
2023-04-05T04:36:13.789Z,0.26
2023-04-05T04:38:58.251Z,0.23
2023-04-05T04:41:47.377Z,0.26
2023-04-05T04:44:33.149Z,0.40
2023-04-05T04:47:21.936Z,0.40
2023-04-05T04:50:03.353Z,0.52
2023-04-05T04:52:30.385Z,0.54
2023-04-05T04:54:57.121Z,0.62
2023-04-05T04:57:25.763Z,0.93
2023-04-05T04:59:53.334Z,1.02
2023-04-05T05:02:24.583Z,1.07
2023-04-05T05:04:51.491Z,1.29
2023-04-05T05:07:19.023Z,1.23
2023-04-05T05:09:46.078Z,1.29
2023-04-05T05:12:12.917Z,1.37
2023-04-05T05:14:39.798Z,1.50
2023-04-05T05:17:06.867Z,1.46
2023-04-05T05:19:33.667Z,1.41
2023-04-05T05:22:00.490Z,1.41
2023-04-05T05:24:27.722Z,1.58
2023-04-05T05:26:54.470Z,1.98
2023-04-05T05:29:21.308Z,2.38
2023-04-05T05:31:49.530Z,3.21
2023-04-05T05:34:17.744Z,3.07
2023-04-05T05:36:49.728Z,3.02
2023-04-05T05:39:16.810Z,3.08
2023-04-05T05:41:44.498Z,3.20
2023-04-05T05:44:11.272Z,3.39
2023-04-05T05:46:38.421Z,3.70
2023-04-05T05:49:05.258Z,4.02
2023-04-05T05:51:36.012Z,4.80
2023-04-05T05:54:02.849Z,5.00
2023-04-05T05:56:29.675Z,5.33
2023-04-05T05:58:56.586Z,5.46
2023-04-05T06:01:28.280Z,6.16
2023-04-05T06:03:55.866Z,7.01
2023-04-05T06:06:23.686Z,7.44
2023-04-05T06:08:51.448Z,7.27
2023-04-05T06:11:23.091Z,8.08
2023-04-05T06:13:52.658Z,7.79
2023-04-05T06:16:19.722Z,8.11
2023-04-05T06:18:49.018Z,7.74
2023-04-05T06:21:16.369Z,8.36
2023-04-05T06:23:43.348Z,8.02
2023-04-05T06:26:18.666Z,8.34
2023-04-05T06:28:48.056Z,7.88
2023-04-05T06:31:16.381Z,7.75
2023-04-05T06:33:43.869Z,8.19
2023-04-05T06:36:11.465Z,8.20
2023-04-05T06:38:38.497Z,8.62
2023-04-05T06:41:05.488Z,8.54
2023-04-05T06:43:32.731Z,8.78
2023-04-05T06:46:00.333Z,8.41
2023-04-05T06:48:29.306Z,8.71
2023-04-05T06:51:03.550Z,8.32
2023-04-05T06:53:31.236Z,9.03
2023-04-05T06:55:59.748Z,8.84
2023-04-05T06:58:27.647Z,8.31
2023-04-05T07:00:56.285Z,7.69
2023-04-05T07:03:23.150Z,8.42
2023-04-05T07:05:54.707Z,7.80
2023-04-05T07:08:28.658Z,7.70
2023-04-05T07:10:55.560Z,8.31
2023-04-05T07:13:25.910Z,7.83
2023-04-05T07:15:59.430Z,7.99
2023-04-05T07:18:26.289Z,8.28
2023-04-05T07:20:56.460Z,8.38
2023-04-05T07:23:23.264Z,8.35
2023-04-05T07:25:50.169Z,8.95
2023-04-05T07:28:16.960Z,8.58
2023-04-05T07:30:43.984Z,8.58
2023-04-05T07:33:11.220Z,8.67
2023-04-05T07:35:38.033Z,8.29
2023-04-05T07:38:04.872Z,8.39
2023-04-05T07:40:31.603Z,8.80
2023-04-05T07:42:58.359Z,9.40
2023-04-05T07:45:25.242Z,9.04
2023-04-05T07:47:52.087Z,9.37
2023-04-05T07:50:20.199Z,8.98
2023-04-05T07:52:48.577Z,8.76
2023-04-05T07:55:17.255Z,8.48
2023-04-05T07:57:44.062Z,8.48
2023-04-05T08:00:13.381Z,9.30
2023-04-05T08:02:40.911Z,9.46
2023-04-05T08:05:08.181Z,9.52
2023-04-05T08:07:35.045Z,9.36
2023-04-05T08:10:02.007Z,9.00
2023-04-05T08:12:31.720Z,8.51
2023-04-05T08:14:59.050Z,8.50
2023-04-05T08:17:28.288Z,8.87
2023-04-05T08:19:55.539Z,8.12
2023-04-05T08:22:22.450Z,8.56
2023-04-05T08:24:49.706Z,8.34
2023-04-05T08:27:17.117Z,8.57
2023-04-05T08:29:44.139Z,8.71
2023-04-05T08:32:11.382Z,8.88
2023-04-05T08:34:38.291Z,9.00
2023-04-05T08:37:05.103Z,8.61
2023-04-05T08:39:34.281Z,7.99
2023-04-05T08:42:08.572Z,7.49
2023-04-05T08:44:37.891Z,7.61
2023-04-05T08:47:04.883Z,7.23
2023-04-05T08:49:31.845Z,7.56
2023-04-05T08:52:01.021Z,7.94
2023-04-05T08:54:27.878Z,7.89
2023-04-05T08:56:55.164Z,8.27
2023-04-05T08:59:22.958Z,8.09
2023-04-05T09:01:52.756Z,8.27
2023-04-05T09:04:24.237Z,8.35
2023-04-05T09:06:52.384Z,8.22
2023-04-05T09:09:21.383Z,7.95
2023-04-05T09:11:48.915Z,8.25
2023-04-05T09:14:16.587Z,8.56
2023-04-05T09:16:43.673Z,9.07
2023-04-05T09:19:11.280Z,8.92
2023-04-05T09:22:01.252Z,9.10
2023-04-05T09:24:44.891Z,8.73
2023-04-05T09:27:20.570Z,9.16
2023-04-05T09:29:56.662Z,8.38
2023-04-05T09:32:29.563Z,8.63
2023-04-05T09:35:04.549Z,8.53
2023-04-05T09:37:33.815Z,8.68
2023-04-05T09:40:06.956Z,8.44
2023-04-05T09:42:47.537Z,8.37
2023-04-05T09:45:15.681Z,8.25
2023-04-05T09:47:57.655Z,8.75
2023-04-05T09:50:24.997Z,9.30
2023-04-05T09:53:16.610Z,9.07
2023-04-05T09:55:44.807Z,8.82
2023-04-05T09:58:20.837Z,8.86
2023-04-05T10:01:03.294Z,8.14
2023-04-05T10:03:48.431Z,8.08
2023-04-05T10:06:17.193Z,8.52
2023-04-05T10:08:45.822Z,8.45
2023-04-05T10:11:15.764Z,8.46
2023-04-05T10:13:42.648Z,8.51
2023-04-05T10:16:13.714Z,8.68
2023-04-05T10:18:51.870Z,8.99
2023-04-05T10:21:29.357Z,8.57
2023-04-05T10:24:08.763Z,8.60
2023-04-05T10:26:59.315Z,8.32
2023-04-05T10:29:34.391Z,8.47
2023-04-05T10:32:11.439Z,8.53
2023-04-05T10:34:51.269Z,9.02
2023-04-05T10:37:42.875Z,8.73
2023-04-05T10:40:12.972Z,8.55
2023-04-05T10:42:46.453Z,8.37
2023-04-05T10:45:15.712Z,7.76
2023-04-05T10:48:02.953Z,7.73
2023-04-05T10:50:30.841Z,7.91
2023-04-05T10:52:59.733Z,8.09
2023-04-05T10:55:28.774Z,8.22
2023-04-05T10:57:58.128Z,8.24
2023-04-05T11:00:27.118Z,8.42
2023-04-05T11:02:57.324Z,8.64
2023-04-05T11:05:32.427Z,8.83
2023-04-05T11:08:08.496Z,8.93
2023-04-05T11:10:37.743Z,9.15
2023-04-05T11:13:10.957Z,9.07
2023-04-05T11:15:38.629Z,9.05
2023-04-05T11:18:12.794Z,9.28
2023-04-05T11:20:56.234Z,9.05
2023-04-05T11:23:25.044Z,8.79
2023-04-05T11:26:02.450Z,8.76
2023-04-05T11:28:31.973Z,8.78
2023-04-05T11:31:14.035Z,8.56
2023-04-05T11:33:55.731Z,8.35
2023-04-05T11:36:45.981Z,8.53
2023-04-05T11:39:21.824Z,8.45
2023-04-05T11:42:14.631Z,8.73
2023-04-05T11:44:42.601Z,8.44
2023-04-05T11:47:11.909Z,8.40
2023-04-05T11:49:51.564Z,8.37
2023-04-05T11:52:20.845Z,8.12
2023-04-05T11:54:49.404Z,8.08
2023-04-05T11:57:21.139Z,8.03
2023-04-05T11:59:49.705Z,8.05
2023-04-05T12:02:17.590Z,8.09
2023-04-05T12:04:44.516Z,8.24
2023-04-05T12:07:19.550Z,8.32
2023-04-05T12:10:03.446Z,8.21
2023-04-05T12:12:36.408Z,8.23
2023-04-05T12:15:04.329Z,8.39
2023-04-05T12:17:51.343Z,8.56
2023-04-05T12:20:24.776Z,8.28
2023-04-05T12:22:54.440Z,8.43
2023-04-05T12:25:21.720Z,8.25
2023-04-05T12:27:48.860Z,8.25
2023-04-05T12:30:21.271Z,8.23
2023-04-05T12:32:51.951Z,8.32
2023-04-05T12:35:32.318Z,8.12
2023-04-05T12:38:08.116Z,8.26
2023-04-05T12:40:35.789Z,8.47
2023-04-05T12:43:04.839Z,8.49
2023-04-05T12:45:40.320Z,8.52
2023-04-05T12:48:11.208Z,8.46
2023-04-05T12:50:44.360Z,8.53
2023-04-05T12:53:23.860Z,8.42
2023-04-05T12:55:52.778Z,8.41
2023-04-05T12:58:21.539Z,8.16
2023-04-05T13:00:49.966Z,8.19
2023-04-05T13:03:20.641Z,8.12
2023-04-05T13:05:50.796Z,8.24
2023-04-05T13:08:18.562Z,8.45
2023-04-05T13:10:49.528Z,8.71
2023-04-05T13:13:34.395Z,8.82
2023-04-05T13:16:01.370Z,8.42
2023-04-05T13:18:28.412Z,8.51
2023-04-05T13:20:56.683Z,8.63
2023-04-05T13:23:24.063Z,8.60
2023-04-05T13:25:50.880Z,8.55
2023-04-05T13:28:18.874Z,8.55
2023-04-05T13:30:45.654Z,8.74
2023-04-05T13:33:12.431Z,8.64
2023-04-05T13:35:39.585Z,8.44
2023-04-05T13:38:06.441Z,8.44
2023-04-05T13:40:34.305Z,8.33
2023-04-05T13:43:01.468Z,8.42
2023-04-05T13:45:28.472Z,8.63
2023-04-05T13:47:55.670Z,9.03
2023-04-05T13:50:22.534Z,9.00
2023-04-05T13:52:51.829Z,8.77
2023-04-05T13:55:19.137Z,8.82
2023-04-05T13:57:46.285Z,8.59
2023-04-05T14:00:14.087Z,8.48
2023-04-05T14:02:41.802Z,8.45
2023-04-05T14:05:09.443Z,8.60
2023-04-05T14:07:36.816Z,8.92
2023-04-05T14:10:03.721Z,9.04
2023-04-05T14:12:31.705Z,8.68
2023-04-05T14:15:00.397Z,8.54
2023-04-05T14:17:27.370Z,8.46
2023-04-05T14:19:54.297Z,8.43
2023-04-05T14:22:21.632Z,8.25
2023-04-05T14:24:48.522Z,8.19
2023-04-05T14:27:15.510Z,8.30
2023-04-05T14:29:42.406Z,8.37
2023-04-05T14:32:09.267Z,8.27
2023-04-05T14:34:37.976Z,8.26
2023-04-05T14:37:06.752Z,8.47
2023-04-05T14:39:33.982Z,8.55
2023-04-05T14:42:01.334Z,8.45
2023-04-05T14:44:28.199Z,8.57
2023-04-05T14:46:54.968Z,8.61
2023-04-05T14:49:21.796Z,8.55
2023-04-05T14:51:48.660Z,8.53
2023-04-05T14:54:15.619Z,8.51
2023-04-05T14:56:42.573Z,8.59
2023-04-05T14:59:12.094Z,8.49
2023-04-05T15:01:41.804Z,8.64
2023-04-05T15:04:09.426Z,8.47
2023-04-05T15:06:36.440Z,8.35
2023-04-05T15:09:06.028Z,8.31
2023-04-05T15:11:35.763Z,8.14
2023-04-05T15:14:02.644Z,8.05
2023-04-05T15:16:30.615Z,8.07
2023-04-05T15:19:01.625Z,8.19
2023-04-05T15:21:28.544Z,8.25
2023-04-05T15:23:55.390Z,8.23
2023-04-05T15:26:22.409Z,8.16
2023-04-05T15:28:49.312Z,8.04
2023-04-05T15:31:16.196Z,8.03
2023-04-05T15:33:43.469Z,8.03
2023-04-05T15:36:10.508Z,8.01
2023-04-05T15:38:37.685Z,7.97
2023-04-05T15:41:04.612Z,8.02
2023-04-05T15:43:33.092Z,7.89
2023-04-05T15:46:00.034Z,7.73
2023-04-05T15:48:26.969Z,7.73
2023-04-05T15:50:53.766Z,7.76
2023-04-05T15:53:20.627Z,7.76
2023-04-05T15:55:47.457Z,7.77
2023-04-05T15:58:14.282Z,7.74
2023-04-05T16:00:41.817Z,7.65
2023-04-05T16:03:08.711Z,7.63
2023-04-05T16:05:35.899Z,7.73
2023-04-05T16:08:02.714Z,7.67
2023-04-05T16:10:29.501Z,7.73
2023-04-05T16:12:56.346Z,7.61
2023-04-05T16:15:24.192Z,7.70
2023-04-05T16:17:51.190Z,7.77
2023-04-05T16:20:18.615Z,7.71
2023-04-05T16:22:46.166Z,7.74
2023-04-05T16:25:12.983Z,7.58
2023-04-05T16:27:39.751Z,7.48
2023-04-05T16:30:07.769Z,7.48
2023-04-05T16:32:34.604Z,7.62
2023-04-05T16:35:01.754Z,7.50
2023-04-05T16:37:29.688Z,7.24
2023-04-05T16:39:56.616Z,7.17
2023-04-05T16:42:23.398Z,7.13
2023-04-05T16:44:50.174Z,7.14
2023-04-05T16:47:16.971Z,7.05
2023-04-05T16:49:43.708Z,7.11
2023-04-05T16:52:10.643Z,7.03
2023-04-05T16:54:37.448Z,6.98
2023-04-05T16:57:04.338Z,6.96
2023-04-05T16:59:31.371Z,6.85
2023-04-05T17:01:59.178Z,6.75
2023-04-05T17:04:26.418Z,6.87
2023-04-05T17:06:53.316Z,6.67
2023-04-05T17:09:21.658Z,6.62
2023-04-05T17:11:51.689Z,6.57
2023-04-05T17:14:18.764Z,6.54
2023-04-05T17:16:45.825Z,6.63
2023-04-05T17:19:12.565Z,6.51
2023-04-05T17:21:39.379Z,6.40
2023-04-05T17:24:06.569Z,6.46
2023-04-05T17:26:33.595Z,6.41
2023-04-05T17:29:00.429Z,6.33
2023-04-05T17:31:27.400Z,6.26
2023-04-05T17:33:54.619Z,6.29
2023-04-05T17:36:21.437Z,6.22
2023-04-05T17:38:48.265Z,6.30
2023-04-05T17:41:15.109Z,6.22
2023-04-05T17:43:44.392Z,6.11
2023-04-05T17:46:13.957Z,6.12
2023-04-05T17:48:44.027Z,6.13
2023-04-05T17:51:10.910Z,6.05
2023-04-05T17:53:37.732Z,5.98
2023-04-05T17:56:04.735Z,5.95
2023-04-05T17:58:32.452Z,5.95
2023-04-05T18:01:00.373Z,5.92
2023-04-05T18:03:27.920Z,5.83
2023-04-05T18:05:56.347Z,5.84
2023-04-05T18:08:24.104Z,5.78
2023-04-05T18:10:57.477Z,5.78
2023-04-05T18:13:24.774Z,5.54
2023-04-05T18:15:55.579Z,5.66
2023-04-05T18:18:22.935Z,5.71
2023-04-05T18:20:54.018Z,5.62
2023-04-05T18:23:24.686Z,5.59
2023-04-05T18:25:55.474Z,5.59
2023-04-05T18:28:23.704Z,5.57
2023-04-05T18:30:51.735Z,5.56
2023-04-05T18:33:18.854Z,5.58
2023-04-05T18:35:52.484Z,5.53
2023-04-05T18:38:21.496Z,5.51
2023-04-05T18:40:48.730Z,5.47
2023-04-05T18:43:15.660Z,5.48
2023-04-05T18:45:42.427Z,5.50
2023-04-05T18:48:09.278Z,5.48
2023-04-05T18:50:36.762Z,5.41
2023-04-05T18:53:03.964Z,5.39
2023-04-05T18:55:30.826Z,5.42
2023-04-05T18:57:57.752Z,5.51
2023-04-05T19:00:24.649Z,5.36
2023-04-05T19:02:51.664Z,5.35
2023-04-05T19:05:18.798Z,5.37
2023-04-05T19:07:45.693Z,5.34
2023-04-05T19:10:12.563Z,5.32
2023-04-05T19:12:39.410Z,5.26
2023-04-05T19:15:07.135Z,5.25
2023-04-05T19:17:33.986Z,5.22
2023-04-05T19:20:00.973Z,5.22
2023-04-05T19:22:27.766Z,5.20
2023-04-05T19:24:54.772Z,5.18
2023-04-05T19:27:21.567Z,5.22
2023-04-05T19:29:48.419Z,5.20
2023-04-05T19:32:17.201Z,5.20
2023-04-05T19:34:44.175Z,5.19
2023-04-05T19:37:14.625Z,5.17
2023-04-05T19:39:42.565Z,5.14
2023-04-05T19:42:09.304Z,5.08
2023-04-05T19:44:51.410Z,5.13
2023-04-05T19:47:21.150Z,4.99
2023-04-05T19:49:49.662Z,5.01
2023-04-05T19:52:48.402Z,4.90
2023-04-05T19:55:33.077Z,4.88
2023-04-05T19:58:01.878Z,4.96
2023-04-05T20:00:52.824Z,4.85
2023-04-05T20:03:32.868Z,4.85
2023-04-05T20:06:13.498Z,4.82
2023-04-05T20:08:41.248Z,4.85
2023-04-05T20:11:20.655Z,4.89
2023-04-05T20:13:56.924Z,4.79
2023-04-05T20:16:30.360Z,4.83
2023-04-05T20:18:58.767Z,4.67
2023-04-05T20:21:26.067Z,4.80
2023-04-05T20:23:53.175Z,4.84
2023-04-05T20:26:28.849Z,4.81
2023-04-05T20:28:57.493Z,4.78
2023-04-05T20:31:29.014Z,4.76
2023-04-05T20:33:56.345Z,4.84
2023-04-05T20:36:34.330Z,4.80
2023-04-05T20:39:04.419Z,4.78
2023-04-05T20:41:34.020Z,4.72
2023-04-05T20:44:01.369Z,4.69
2023-04-05T20:46:28.649Z,4.67
2023-04-05T20:48:58.175Z,4.64
2023-04-05T20:51:25.668Z,4.66
2023-04-05T20:53:52.733Z,4.66
2023-04-05T20:56:19.888Z,4.63
2023-04-05T20:58:48.591Z,4.69
2023-04-05T21:01:15.674Z,4.59
2023-04-05T21:03:43.147Z,4.57
2023-04-05T21:06:11.298Z,4.53
2023-04-05T21:08:39.729Z,4.49
2023-04-05T21:11:07.778Z,4.49
2023-04-05T21:13:36.242Z,4.43
2023-04-05T21:16:03.278Z,4.48
2023-04-05T21:18:30.734Z,4.49
2023-04-05T21:20:57.490Z,4.44
2023-04-05T21:23:27.224Z,4.41
2023-04-05T21:25:55.165Z,4.37
2023-04-05T21:28:22.166Z,4.39
2023-04-05T21:30:49.388Z,4.38
2023-04-05T21:33:17.895Z,4.36
2023-04-05T21:35:44.878Z,4.38
2023-04-05T21:38:14.184Z,4.37
2023-04-05T21:40:42.611Z,4.36
2023-04-05T21:43:11.977Z,4.40
2023-04-05T21:45:38.872Z,4.39
2023-04-05T21:48:06.161Z,4.37
2023-04-05T21:50:33.142Z,4.33
2023-04-05T21:52:59.911Z,4.37
2023-04-05T21:55:26.817Z,4.36
2023-04-05T21:57:53.849Z,4.37
2023-04-05T22:00:20.929Z,4.40
2023-04-05T22:03:01.362Z,4.33
2023-04-05T22:05:37.366Z,4.37
2023-04-05T22:08:06.430Z,4.34
2023-04-05T22:10:34.056Z,4.36
2023-04-05T22:13:01.320Z,4.36
2023-04-05T22:15:28.316Z,4.31
2023-04-05T22:17:55.243Z,4.30
2023-04-05T22:20:22.364Z,4.37
2023-04-05T22:22:49.266Z,4.38
2023-04-05T22:25:16.606Z,4.32
2023-04-05T22:27:45.541Z,4.34
2023-04-05T22:30:12.908Z,4.33
2023-04-05T22:32:39.787Z,4.32
2023-04-05T22:35:07.262Z,4.31
2023-04-05T22:37:36.595Z,4.32
2023-04-05T22:40:04.646Z,4.29
2023-04-05T22:42:31.662Z,4.33
2023-04-05T22:44:58.529Z,4.36
2023-04-05T22:47:25.606Z,4.38
2023-04-05T22:49:52.538Z,4.30
2023-04-05T22:52:19.674Z,4.35
2023-04-05T22:54:46.523Z,4.30
2023-04-05T22:57:13.463Z,4.36
2023-04-05T22:59:40.561Z,4.27
2023-04-05T23:02:07.550Z,4.31
2023-04-05T23:04:34.388Z,4.30
2023-04-05T23:07:01.179Z,4.22
2023-04-05T23:09:28.174Z,4.25
2023-04-05T23:11:55.554Z,4.22
2023-04-05T23:14:23.359Z,4.19
2023-04-05T23:16:50.323Z,4.26
2023-04-05T23:19:17.104Z,4.25
2023-04-05T23:21:43.947Z,4.20
2023-04-05T23:24:11.124Z,4.18
2023-04-05T23:26:38.168Z,4.24
2023-04-05T23:29:04.961Z,4.18
2023-04-05T23:31:31.915Z,4.23
2023-04-05T23:33:58.862Z,4.23
2023-04-05T23:36:26.130Z,4.19
2023-04-05T23:38:52.942Z,4.20
2023-04-05T23:41:19.732Z,4.14
2023-04-05T23:43:46.554Z,4.15
2023-04-05T23:46:13.531Z,4.14
2023-04-05T23:48:40.412Z,4.16
2023-04-05T23:51:07.417Z,4.16
2023-04-05T23:53:34.340Z,4.10
2023-04-05T23:56:01.513Z,4.11
2023-04-05T23:58:28.396Z,4.09
